sensor_id;sensor_type;location;lat;lon;timestamp;P1;durP1;ratioP1;P2;durP2;ratioP2
26540;SDS011;14206;50.202;10.948;2023-07-13T00:00:48;0.30;;;0.30;;
26540;SDS011;14206;50.202;10.948;2023-07-13T00:03:15;0.63;;;0.50;;
26540;SDS011;14206;50.202;10.948;2023-07-13T00:05:42;0.50;;;0.43;;
26540;SDS011;14206;50.202;10.948;2023-07-13T00:08:09;1.42;;;0.50;;
26540;SDS011;14206;50.202;10.948;2023-07-13T00:10:41;0.57;;;0.38;;
26540;SDS011;14206;50.202;10.948;2023-07-13T00:13:08;0.30;;;0.30;;
26540;SDS011;14206;50.202;10.948;2023-07-13T00:15:35;0.75;;;0.38;;
26540;SDS011;14206;50.202;10.948;2023-07-13T00:18:03;0.40;;;0.40;;
26540;SDS011;14206;50.202;10.948;2023-07-13T00:20:30;0.40;;;0.40;;
26540;SDS011;14206;50.202;10.948;2023-07-13T00:22:57;0.30;;;0.30;;
26540;SDS011;14206;50.202;10.948;2023-07-13T00:25:24;0.40;;;0.40;;
26540;SDS011;14206;50.202;10.948;2023-07-13T00:27:52;0.73;;;0.40;;
26540;SDS011;14206;50.202;10.948;2023-07-13T00:30:19;0.30;;;0.30;;
26540;SDS011;14206;50.202;10.948;2023-07-13T00:32:46;0.40;;;0.40;;
26540;SDS011;14206;50.202;10.948;2023-07-13T00:35:13;0.40;;;0.40;;
26540;SDS011;14206;50.202;10.948;2023-07-13T00:37:41;0.30;;;0.30;;
26540;SDS011;14206;50.202;10.948;2023-07-13T00:40:09;0.30;;;0.30;;
26540;SDS011;14206;50.202;10.948;2023-07-13T00:42:38;0.30;;;0.30;;
26540;SDS011;14206;50.202;10.948;2023-07-13T00:47:38;0.28;;;0.28;;
26540;SDS011;14206;50.202;10.948;2023-07-13T00:50:09;0.40;;;0.40;;
26540;SDS011;14206;50.202;10.948;2023-07-13T00:52:39;0.32;;;0.32;;
26540;SDS011;14206;50.202;10.948;2023-07-13T00:55:09;0.40;;;0.40;;
26540;SDS011;14206;50.202;10.948;2023-07-13T00:57:37;0.40;;;0.40;;
26540;SDS011;14206;50.202;10.948;2023-07-13T01:00:06;0.25;;;0.25;;
26540;SDS011;14206;50.202;10.948;2023-07-13T01:02:35;0.40;;;0.40;;
26540;SDS011;14206;50.202;10.948;2023-07-13T01:05:11;0.20;;;0.20;;
26540;SDS011;14206;50.202;10.948;2023-07-13T01:07:43;0.70;;;0.30;;
26540;SDS011;14206;50.202;10.948;2023-07-13T01:10:11;1.05;;;0.50;;
26540;SDS011;14206;50.202;10.948;2023-07-13T01:12:39;0.50;;;0.50;;
26540;SDS011;14206;50.202;10.948;2023-07-13T01:18:04;0.35;;;0.35;;
26540;SDS011;14206;50.202;10.948;2023-07-13T01:20:33;0.40;;;0.40;;
26540;SDS011;14206;50.202;10.948;2023-07-13T01:23:07;0.45;;;0.40;;
26540;SDS011;14206;50.202;10.948;2023-07-13T01:25:36;0.65;;;0.50;;
26540;SDS011;14206;50.202;10.948;2023-07-13T01:28:05;0.52;;;0.40;;
26540;SDS011;14206;50.202;10.948;2023-07-13T01:30:32;0.40;;;0.40;;
26540;SDS011;14206;50.202;10.948;2023-07-13T01:33:01;0.38;;;0.38;;
26540;SDS011;14206;50.202;10.948;2023-07-13T01:35:30;0.50;;;0.50;;
26540;SDS011;14206;50.202;10.948;2023-07-13T01:37:58;0.30;;;0.30;;
26540;SDS011;14206;50.202;10.948;2023-07-13T01:40:26;0.43;;;0.40;;
26540;SDS011;14206;50.202;10.948;2023-07-13T01:42:56;0.30;;;0.30;;
26540;SDS011;14206;50.202;10.948;2023-07-13T01:45:24;0.32;;;0.32;;
26540;SDS011;14206;50.202;10.948;2023-07-13T01:47:52;0.50;;;0.50;;
26540;SDS011;14206;50.202;10.948;2023-07-13T01:50:19;0.40;;;0.40;;
26540;SDS011;14206;50.202;10.948;2023-07-13T01:52:47;0.30;;;0.30;;
26540;SDS011;14206;50.202;10.948;2023-07-13T01:55:14;0.50;;;0.47;;
26540;SDS011;14206;50.202;10.948;2023-07-13T01:57:41;0.40;;;0.40;;
26540;SDS011;14206;50.202;10.948;2023-07-13T02:00:10;0.32;;;0.32;;
26540;SDS011;14206;50.202;10.948;2023-07-13T02:02:40;0.40;;;0.40;;
26540;SDS011;14206;50.202;10.948;2023-07-13T02:05:11;0.30;;;0.30;;
26540;SDS011;14206;50.202;10.948;2023-07-13T02:07:40;0.30;;;0.30;;
26540;SDS011;14206;50.202;10.948;2023-07-13T02:10:08;0.50;;;0.40;;
26540;SDS011;14206;50.202;10.948;2023-07-13T02:12:36;1.38;;;0.30;;
26540;SDS011;14206;50.202;10.948;2023-07-13T02:15:03;0.32;;;0.32;;
26540;SDS011;14206;50.202;10.948;2023-07-13T02:17:30;0.85;;;0.50;;
26540;SDS011;14206;50.202;10.948;2023-07-13T02:19:58;0.57;;;0.40;;
26540;SDS011;14206;50.202;10.948;2023-07-13T02:22:25;0.55;;;0.50;;
26540;SDS011;14206;50.202;10.948;2023-07-13T02:24:52;0.55;;;0.40;;
26540;SDS011;14206;50.202;10.948;2023-07-13T02:27:19;0.70;;;0.50;;
26540;SDS011;14206;50.202;10.948;2023-07-13T02:29:46;0.88;;;0.50;;
26540;SDS011;14206;50.202;10.948;2023-07-13T02:32:13;0.50;;;0.50;;
26540;SDS011;14206;50.202;10.948;2023-07-13T02:34:40;0.40;;;0.40;;
26540;SDS011;14206;50.202;10.948;2023-07-13T02:37:08;0.40;;;0.40;;
26540;SDS011;14206;50.202;10.948;2023-07-13T02:39:35;0.43;;;0.32;;
26540;SDS011;14206;50.202;10.948;2023-07-13T02:42:02;0.70;;;0.60;;
26540;SDS011;14206;50.202;10.948;2023-07-13T02:44:29;1.45;;;0.80;;
26540;SDS011;14206;50.202;10.948;2023-07-13T02:46:56;0.50;;;0.50;;
26540;SDS011;14206;50.202;10.948;2023-07-13T02:49:23;0.50;;;0.50;;
26540;SDS011;14206;50.202;10.948;2023-07-13T02:51:50;0.50;;;0.50;;
26540;SDS011;14206;50.202;10.948;2023-07-13T02:54:17;0.50;;;0.50;;
26540;SDS011;14206;50.202;10.948;2023-07-13T02:56:44;0.70;;;0.60;;
26540;SDS011;14206;50.202;10.948;2023-07-13T02:59:12;0.50;;;0.50;;
26540;SDS011;14206;50.202;10.948;2023-07-13T03:01:39;0.40;;;0.40;;
26540;SDS011;14206;50.202;10.948;2023-07-13T03:04:07;0.38;;;0.38;;
26540;SDS011;14206;50.202;10.948;2023-07-13T03:06:34;0.40;;;0.40;;
26540;SDS011;14206;50.202;10.948;2023-07-13T03:09:02;0.38;;;0.38;;
26540;SDS011;14206;50.202;10.948;2023-07-13T03:11:31;0.47;;;0.40;;
26540;SDS011;14206;50.202;10.948;2023-07-13T03:14:06;0.40;;;0.40;;
26540;SDS011;14206;50.202;10.948;2023-07-13T03:16:36;0.30;;;0.30;;
26540;SDS011;14206;50.202;10.948;2023-07-13T03:19:03;0.85;;;0.43;;
26540;SDS011;14206;50.202;10.948;2023-07-13T03:21:30;0.40;;;0.40;;
26540;SDS011;14206;50.202;10.948;2023-07-13T03:23:57;0.40;;;0.40;;
26540;SDS011;14206;50.202;10.948;2023-07-13T03:26:24;0.40;;;0.40;;
26540;SDS011;14206;50.202;10.948;2023-07-13T03:28:51;0.40;;;0.40;;
26540;SDS011;14206;50.202;10.948;2023-07-13T03:31:23;1.58;;;1.00;;
26540;SDS011;14206;50.202;10.948;2023-07-13T03:33:56;0.77;;;0.70;;
26540;SDS011;14206;50.202;10.948;2023-07-13T03:36:24;0.70;;;0.50;;
26540;SDS011;14206;50.202;10.948;2023-07-13T03:38:58;0.40;;;0.40;;
26540;SDS011;14206;50.202;10.948;2023-07-13T03:41:36;0.40;;;0.40;;
26540;SDS011;14206;50.202;10.948;2023-07-13T03:44:03;0.40;;;0.30;;
26540;SDS011;14206;50.202;10.948;2023-07-13T03:46:30;0.50;;;0.40;;
26540;SDS011;14206;50.202;10.948;2023-07-13T03:48:57;0.40;;;0.40;;
26540;SDS011;14206;50.202;10.948;2023-07-13T03:51:24;0.30;;;0.30;;
26540;SDS011;14206;50.202;10.948;2023-07-13T03:53:51;0.50;;;0.47;;
26540;SDS011;14206;50.202;10.948;2023-07-13T03:56:19;1.08;;;0.60;;
26540;SDS011;14206;50.202;10.948;2023-07-13T03:58:47;0.57;;;0.57;;
26540;SDS011;14206;50.202;10.948;2023-07-13T04:01:19;0.55;;;0.52;;
26540;SDS011;14206;50.202;10.948;2023-07-13T04:03:47;1.85;;;0.60;;
26540;SDS011;14206;50.202;10.948;2023-07-13T04:06:16;0.55;;;0.50;;
26540;SDS011;14206;50.202;10.948;2023-07-13T04:08:49;0.40;;;0.40;;
26540;SDS011;14206;50.202;10.948;2023-07-13T04:11:18;0.40;;;0.40;;
26540;SDS011;14206;50.202;10.948;2023-07-13T04:13:46;0.80;;;0.55;;
26540;SDS011;14206;50.202;10.948;2023-07-13T04:16:14;0.50;;;0.50;;
26540;SDS011;14206;50.202;10.948;2023-07-13T04:18:42;0.40;;;0.40;;
26540;SDS011;14206;50.202;10.948;2023-07-13T04:21:09;0.52;;;0.40;;
26540;SDS011;14206;50.202;10.948;2023-07-13T04:23:37;0.75;;;0.60;;
26540;SDS011;14206;50.202;10.948;2023-07-13T04:26:04;0.60;;;0.60;;
26540;SDS011;14206;50.202;10.948;2023-07-13T04:28:32;0.55;;;0.50;;
26540;SDS011;14206;50.202;10.948;2023-07-13T04:30:59;0.28;;;0.28;;
26540;SDS011;14206;50.202;10.948;2023-07-13T04:33:27;0.65;;;0.43;;
26540;SDS011;14206;50.202;10.948;2023-07-13T04:35:54;1.35;;;0.50;;
26540;SDS011;14206;50.202;10.948;2023-07-13T04:38:24;0.50;;;0.50;;
26540;SDS011;14206;50.202;10.948;2023-07-13T04:40:56;2.08;;;1.00;;
26540;SDS011;14206;50.202;10.948;2023-07-13T04:43:26;0.70;;;0.70;;
26540;SDS011;14206;50.202;10.948;2023-07-13T04:45:54;1.13;;;0.50;;
26540;SDS011;14206;50.202;10.948;2023-07-13T04:48:22;0.40;;;0.40;;
26540;SDS011;14206;50.202;10.948;2023-07-13T04:50:56;1.10;;;0.70;;
26540;SDS011;14206;50.202;10.948;2023-07-13T04:53:26;1.48;;;0.90;;
26540;SDS011;14206;50.202;10.948;2023-07-13T04:55:52;0.93;;;0.80;;
26540;SDS011;14206;50.202;10.948;2023-07-13T04:58:19;0.60;;;0.60;;
26540;SDS011;14206;50.202;10.948;2023-07-13T05:00:47;0.60;;;0.60;;
26540;SDS011;14206;50.202;10.948;2023-07-13T05:03:14;0.63;;;0.50;;
26540;SDS011;14206;50.202;10.948;2023-07-13T05:05:42;1.55;;;0.80;;
26540;SDS011;14206;50.202;10.948;2023-07-13T05:08:11;0.95;;;0.70;;
26540;SDS011;14206;50.202;10.948;2023-07-13T05:10:38;0.70;;;0.60;;
26540;SDS011;14206;50.202;10.948;2023-07-13T05:13:05;0.65;;;0.60;;
26540;SDS011;14206;50.202;10.948;2023-07-13T05:15:32;1.77;;;0.50;;
26540;SDS011;14206;50.202;10.948;2023-07-13T05:18:00;0.80;;;0.45;;
26540;SDS011;14206;50.202;10.948;2023-07-13T05:20:27;0.80;;;0.80;;
26540;SDS011;14206;50.202;10.948;2023-07-13T05:22:53;0.80;;;0.73;;
26540;SDS011;14206;50.202;10.948;2023-07-13T05:25:20;0.75;;;0.60;;
26540;SDS011;14206;50.202;10.948;2023-07-13T05:27:47;0.40;;;0.40;;
26540;SDS011;14206;50.202;10.948;2023-07-13T05:30:14;0.95;;;0.50;;
26540;SDS011;14206;50.202;10.948;2023-07-13T05:32:41;1.00;;;0.60;;
26540;SDS011;14206;50.202;10.948;2023-07-13T05:35:08;2.00;;;1.00;;
26540;SDS011;14206;50.202;10.948;2023-07-13T05:37:37;0.82;;;0.70;;
26540;SDS011;14206;50.202;10.948;2023-07-13T05:40:04;1.17;;;0.60;;
26540;SDS011;14206;50.202;10.948;2023-07-13T05:42:31;0.95;;;0.75;;
26540;SDS011;14206;50.202;10.948;2023-07-13T05:44:58;1.15;;;0.80;;
26540;SDS011;14206;50.202;10.948;2023-07-13T05:47:25;1.40;;;1.02;;
26540;SDS011;14206;50.202;10.948;2023-07-13T05:49:52;0.68;;;0.65;;
26540;SDS011;14206;50.202;10.948;2023-07-13T05:52:18;1.10;;;0.82;;
26540;SDS011;14206;50.202;10.948;2023-07-13T05:54:45;1.33;;;0.80;;
26540;SDS011;14206;50.202;10.948;2023-07-13T05:57:12;1.50;;;0.70;;
26540;SDS011;14206;50.202;10.948;2023-07-13T05:59:39;1.05;;;0.63;;
26540;SDS011;14206;50.202;10.948;2023-07-13T06:02:08;0.82;;;0.60;;
26540;SDS011;14206;50.202;10.948;2023-07-13T06:04:36;1.58;;;0.73;;
26540;SDS011;14206;50.202;10.948;2023-07-13T06:07:03;2.08;;;0.80;;
26540;SDS011;14206;50.202;10.948;2023-07-13T06:09:30;1.83;;;0.90;;
26540;SDS011;14206;50.202;10.948;2023-07-13T06:11:56;2.63;;;1.02;;
26540;SDS011;14206;50.202;10.948;2023-07-13T06:14:23;1.98;;;0.80;;
26540;SDS011;14206;50.202;10.948;2023-07-13T06:16:51;1.40;;;0.80;;
26540;SDS011;14206;50.202;10.948;2023-07-13T06:19:18;1.10;;;0.70;;
26540;SDS011;14206;50.202;10.948;2023-07-13T06:21:45;1.23;;;1.00;;
26540;SDS011;14206;50.202;10.948;2023-07-13T06:24:13;1.88;;;0.80;;
26540;SDS011;14206;50.202;10.948;2023-07-13T06:26:40;1.67;;;0.90;;
26540;SDS011;14206;50.202;10.948;2023-07-13T06:29:07;1.65;;;0.82;;
26540;SDS011;14206;50.202;10.948;2023-07-13T06:31:34;1.15;;;0.80;;
26540;SDS011;14206;50.202;10.948;2023-07-13T06:34:01;0.90;;;0.80;;
26540;SDS011;14206;50.202;10.948;2023-07-13T06:36:28;1.92;;;1.00;;
26540;SDS011;14206;50.202;10.948;2023-07-13T06:38:55;1.80;;;1.00;;
26540;SDS011;14206;50.202;10.948;2023-07-13T06:41:22;1.50;;;0.82;;
26540;SDS011;14206;50.202;10.948;2023-07-13T06:43:51;0.77;;;0.60;;
26540;SDS011;14206;50.202;10.948;2023-07-13T06:46:22;1.30;;;0.77;;
26540;SDS011;14206;50.202;10.948;2023-07-13T06:48:50;1.95;;;0.82;;
26540;SDS011;14206;50.202;10.948;2023-07-13T06:51:17;2.22;;;1.15;;
26540;SDS011;14206;50.202;10.948;2023-07-13T06:53:44;2.08;;;1.20;;
26540;SDS011;14206;50.202;10.948;2023-07-13T06:56:11;1.00;;;0.73;;
26540;SDS011;14206;50.202;10.948;2023-07-13T06:58:38;1.33;;;0.85;;
26540;SDS011;14206;50.202;10.948;2023-07-13T07:01:05;0.60;;;0.60;;
26540;SDS011;14206;50.202;10.948;2023-07-13T07:03:34;1.08;;;0.70;;
26540;SDS011;14206;50.202;10.948;2023-07-13T07:06:06;2.05;;;0.98;;
26540;SDS011;14206;50.202;10.948;2023-07-13T07:08:41;2.90;;;0.85;;
26540;SDS011;14206;50.202;10.948;2023-07-13T07:11:14;1.88;;;0.88;;
26540;SDS011;14206;50.202;10.948;2023-07-13T07:13:49;2.50;;;1.33;;
26540;SDS011;14206;50.202;10.948;2023-07-13T07:16:17;1.38;;;0.93;;
26540;SDS011;14206;50.202;10.948;2023-07-13T07:18:45;1.38;;;0.68;;
26540;SDS011;14206;50.202;10.948;2023-07-13T07:21:13;1.50;;;0.60;;
26540;SDS011;14206;50.202;10.948;2023-07-13T07:23:44;0.50;;;0.50;;
26540;SDS011;14206;50.202;10.948;2023-07-13T07:26:12;1.08;;;0.80;;
26540;SDS011;14206;50.202;10.948;2023-07-13T07:28:39;1.27;;;0.82;;
26540;SDS011;14206;50.202;10.948;2023-07-13T07:31:13;2.17;;;0.90;;
26540;SDS011;14206;50.202;10.948;2023-07-13T07:33:43;1.25;;;0.75;;
26540;SDS011;14206;50.202;10.948;2023-07-13T07:36:11;0.90;;;0.50;;
26540;SDS011;14206;50.202;10.948;2023-07-13T07:38:41;2.00;;;1.17;;
26540;SDS011;14206;50.202;10.948;2023-07-13T07:41:08;2.70;;;0.80;;
26540;SDS011;14206;50.202;10.948;2023-07-13T07:43:38;1.60;;;0.80;;
26540;SDS011;14206;50.202;10.948;2023-07-13T07:46:05;1.73;;;0.90;;
26540;SDS011;14206;50.202;10.948;2023-07-13T07:48:33;2.17;;;1.00;;
26540;SDS011;14206;50.202;10.948;2023-07-13T07:50:59;0.95;;;0.77;;
26540;SDS011;14206;50.202;10.948;2023-07-13T07:53:26;2.40;;;0.80;;
26540;SDS011;14206;50.202;10.948;2023-07-13T07:55:53;1.60;;;0.80;;
26540;SDS011;14206;50.202;10.948;2023-07-13T07:58:23;1.42;;;0.70;;
26540;SDS011;14206;50.202;10.948;2023-07-13T08:00:53;1.17;;;0.60;;
26540;SDS011;14206;50.202;10.948;2023-07-13T08:03:23;2.60;;;0.80;;
26540;SDS011;14206;50.202;10.948;2023-07-13T08:05:53;2.35;;;0.80;;
26540;SDS011;14206;50.202;10.948;2023-07-13T08:08:23;1.05;;;0.70;;
26540;SDS011;14206;50.202;10.948;2023-07-13T08:10:51;0.77;;;0.40;;
26540;SDS011;14206;50.202;10.948;2023-07-13T08:13:38;2.50;;;0.88;;
26540;SDS011;14206;50.202;10.948;2023-07-13T08:16:05;3.83;;;1.05;;
26540;SDS011;14206;50.202;10.948;2023-07-13T08:18:33;1.15;;;0.60;;
26540;SDS011;14206;50.202;10.948;2023-07-13T08:21:06;0.95;;;0.68;;
26540;SDS011;14206;50.202;10.948;2023-07-13T08:23:35;1.20;;;0.80;;
26540;SDS011;14206;50.202;10.948;2023-07-13T08:26:02;1.52;;;0.68;;
26540;SDS011;14206;50.202;10.948;2023-07-13T08:28:30;2.97;;;0.90;;
26540;SDS011;14206;50.202;10.948;2023-07-13T08:31:02;1.90;;;0.95;;
26540;SDS011;14206;50.202;10.948;2023-07-13T08:33:30;1.85;;;0.80;;
26540;SDS011;14206;50.202;10.948;2023-07-13T08:35:57;1.35;;;0.60;;
26540;SDS011;14206;50.202;10.948;2023-07-13T08:38:24;0.50;;;0.47;;
26540;SDS011;14206;50.202;10.948;2023-07-13T08:40:52;0.65;;;0.40;;
26540;SDS011;14206;50.202;10.948;2023-07-13T08:43:30;1.17;;;0.30;;
26540;SDS011;14206;50.202;10.948;2023-07-13T08:46:05;1.42;;;0.80;;
26540;SDS011;14206;50.202;10.948;2023-07-13T08:48:59;2.60;;;0.60;;
26540;SDS011;14206;50.202;10.948;2023-07-13T08:54:31;0.88;;;0.60;;
26540;SDS011;14206;50.202;10.948;2023-07-13T08:57:13;0.93;;;0.40;;
26540;SDS011;14206;50.202;10.948;2023-07-13T08:59:41;0.88;;;0.30;;
26540;SDS011;14206;50.202;10.948;2023-07-13T09:02:18;0.60;;;0.35;;
26540;SDS011;14206;50.202;10.948;2023-07-13T09:05:01;0.88;;;0.60;;
26540;SDS011;14206;50.202;10.948;2023-07-13T09:08:00;0.40;;;0.40;;
26540;SDS011;14206;50.202;10.948;2023-07-13T09:10:52;0.52;;;0.30;;
26540;SDS011;14206;50.202;10.948;2023-07-13T09:13:42;0.63;;;0.30;;
26540;SDS011;14206;50.202;10.948;2023-07-13T09:16:14;0.32;;;0.30;;
26540;SDS011;14206;50.202;10.948;2023-07-13T09:18:42;0.75;;;0.20;;
26540;SDS011;14206;50.202;10.948;2023-07-13T09:21:13;0.32;;;0.30;;
26540;SDS011;14206;50.202;10.948;2023-07-13T09:23:42;0.38;;;0.32;;
26540;SDS011;14206;50.202;10.948;2023-07-13T09:26:11;0.40;;;0.30;;
26540;SDS011;14206;50.202;10.948;2023-07-13T09:28:45;0.32;;;0.30;;
26540;SDS011;14206;50.202;10.948;2023-07-13T09:31:39;0.32;;;0.30;;
26540;SDS011;14206;50.202;10.948;2023-07-13T09:34:10;0.90;;;0.60;;
26540;SDS011;14206;50.202;10.948;2023-07-13T09:36:39;2.10;;;0.70;;
26540;SDS011;14206;50.202;10.948;2023-07-13T09:39:14;0.85;;;0.30;;
26540;SDS011;14206;50.202;10.948;2023-07-13T09:44:17;1.17;;;0.45;;
26540;SDS011;14206;50.202;10.948;2023-07-13T09:46:47;0.80;;;0.50;;
26540;SDS011;14206;50.202;10.948;2023-07-13T09:49:22;0.28;;;0.28;;
26540;SDS011;14206;50.202;10.948;2023-07-13T09:52:00;1.67;;;0.50;;
26540;SDS011;14206;50.202;10.948;2023-07-13T09:54:32;0.57;;;0.40;;
26540;SDS011;14206;50.202;10.948;2023-07-13T09:57:01;1.25;;;0.50;;
26540;SDS011;14206;50.202;10.948;2023-07-13T09:59:35;0.60;;;0.45;;
26540;SDS011;14206;50.202;10.948;2023-07-13T10:05:05;0.63;;;0.40;;
26540;SDS011;14206;50.202;10.948;2023-07-13T10:07:37;0.32;;;0.30;;
26540;SDS011;14206;50.202;10.948;2023-07-13T10:10:13;0.60;;;0.50;;
26540;SDS011;14206;50.202;10.948;2023-07-13T10:12:41;0.90;;;0.40;;
26540;SDS011;14206;50.202;10.948;2023-07-13T10:15:14;0.50;;;0.50;;
26540;SDS011;14206;50.202;10.948;2023-07-13T10:17:51;0.47;;;0.40;;
26540;SDS011;14206;50.202;10.948;2023-07-13T10:20:21;1.02;;;0.50;;
26540;SDS011;14206;50.202;10.948;2023-07-13T10:22:57;0.43;;;0.30;;
26540;SDS011;14206;50.202;10.948;2023-07-13T10:25:32;0.93;;;0.40;;
26540;SDS011;14206;50.202;10.948;2023-07-13T10:30:56;1.40;;;0.60;;
26540;SDS011;14206;50.202;10.948;2023-07-13T10:33:25;0.75;;;0.35;;
26540;SDS011;14206;50.202;10.948;2023-07-13T10:36:05;1.05;;;0.40;;
26540;SDS011;14206;50.202;10.948;2023-07-13T10:38:35;0.43;;;0.43;;
26540;SDS011;14206;50.202;10.948;2023-07-13T10:41:03;0.70;;;0.47;;
26540;SDS011;14206;50.202;10.948;2023-07-13T10:43:39;2.05;;;0.40;;
26540;SDS011;14206;50.202;10.948;2023-07-13T10:46:12;0.50;;;0.40;;
26540;SDS011;14206;50.202;10.948;2023-07-13T10:48:42;0.38;;;0.20;;
26540;SDS011;14206;50.202;10.948;2023-07-13T10:51:14;0.30;;;0.30;;
26540;SDS011;14206;50.202;10.948;2023-07-13T10:53:44;0.20;;;0.20;;
26540;SDS011;14206;50.202;10.948;2023-07-13T10:59:01;0.30;;;0.30;;
26540;SDS011;14206;50.202;10.948;2023-07-13T11:01:48;0.10;;;0.10;;
26540;SDS011;14206;50.202;10.948;2023-07-13T11:04:46;0.30;;;0.30;;
26540;SDS011;14206;50.202;10.948;2023-07-13T11:07:21;0.38;;;0.28;;
26540;SDS011;14206;50.202;10.948;2023-07-13T11:09:53;0.15;;;0.15;;
26540;SDS011;14206;50.202;10.948;2023-07-13T11:20:36;0.63;;;0.40;;
26540;SDS011;14206;50.202;10.948;2023-07-13T11:25:38;1.23;;;0.50;;
26540;SDS011;14206;50.202;10.948;2023-07-13T11:33:28;0.40;;;0.40;;
26540;SDS011;14206;50.202;10.948;2023-07-13T11:36:05;0.98;;;0.50;;
26540;SDS011;14206;50.202;10.948;2023-07-13T11:38:39;0.45;;;0.40;;
26540;SDS011;14206;50.202;10.948;2023-07-13T11:41:18;0.80;;;0.40;;
26540;SDS011;14206;50.202;10.948;2023-07-13T11:43:52;0.98;;;0.30;;
26540;SDS011;14206;50.202;10.948;2023-07-13T11:46:22;0.88;;;0.40;;
26540;SDS011;14206;50.202;10.948;2023-07-13T11:48:52;0.70;;;0.60;;
26540;SDS011;14206;50.202;10.948;2023-07-13T11:51:23;0.85;;;0.45;;
26540;SDS011;14206;50.202;10.948;2023-07-13T11:53:59;0.57;;;0.40;;
26540;SDS011;14206;50.202;10.948;2023-07-13T11:56:38;0.30;;;0.30;;
26540;SDS011;14206;50.202;10.948;2023-07-13T11:59:06;0.52;;;0.47;;
26540;SDS011;14206;50.202;10.948;2023-07-13T12:01:41;1.13;;;0.50;;
26540;SDS011;14206;50.202;10.948;2023-07-13T12:04:27;0.97;;;0.70;;
26540;SDS011;14206;50.202;10.948;2023-07-13T12:09:35;0.63;;;0.60;;
26540;SDS011;14206;50.202;10.948;2023-07-13T12:12:03;0.90;;;0.45;;
26540;SDS011;14206;50.202;10.948;2023-07-13T12:14:33;0.63;;;0.47;;
26540;SDS011;14206;50.202;10.948;2023-07-13T12:17:00;0.65;;;0.52;;
26540;SDS011;14206;50.202;10.948;2023-07-13T12:19:27;0.60;;;0.60;;
26540;SDS011;14206;50.202;10.948;2023-07-13T12:21:57;0.65;;;0.65;;
26540;SDS011;14206;50.202;10.948;2023-07-13T12:24:25;0.85;;;0.57;;
26540;SDS011;14206;50.202;10.948;2023-07-13T12:26:54;0.90;;;0.50;;
26540;SDS011;14206;50.202;10.948;2023-07-13T12:29:31;1.17;;;0.70;;
26540;SDS011;14206;50.202;10.948;2023-07-13T12:31:59;0.65;;;0.43;;
26540;SDS011;14206;50.202;10.948;2023-07-13T12:34:26;2.40;;;0.75;;
26540;SDS011;14206;50.202;10.948;2023-07-13T12:36:54;0.75;;;0.60;;
26540;SDS011;14206;50.202;10.948;2023-07-13T12:39:23;1.40;;;0.80;;
26540;SDS011;14206;50.202;10.948;2023-07-13T12:41:51;2.15;;;0.90;;
26540;SDS011;14206;50.202;10.948;2023-07-13T12:44:29;1.13;;;0.70;;
26540;SDS011;14206;50.202;10.948;2023-07-13T12:46:58;1.08;;;0.70;;
26540;SDS011;14206;50.202;10.948;2023-07-13T12:49:32;2.67;;;0.80;;
26540;SDS011;14206;50.202;10.948;2023-07-13T12:52:02;0.80;;;0.73;;
26540;SDS011;14206;50.202;10.948;2023-07-13T12:54:30;1.92;;;0.95;;
26540;SDS011;14206;50.202;10.948;2023-07-13T12:56:58;1.27;;;0.80;;
26540;SDS011;14206;50.202;10.948;2023-07-13T12:59:29;3.00;;;0.93;;
26540;SDS011;14206;50.202;10.948;2023-07-13T13:01:59;1.08;;;0.77;;
26540;SDS011;14206;50.202;10.948;2023-07-13T13:04:27;2.60;;;0.90;;
26540;SDS011;14206;50.202;10.948;2023-07-13T13:07:01;1.23;;;0.98;;
26540;SDS011;14206;50.202;10.948;2023-07-13T13:09:30;1.75;;;0.80;;
26540;SDS011;14206;50.202;10.948;2023-07-13T13:11:57;0.93;;;0.70;;
26540;SDS011;14206;50.202;10.948;2023-07-13T13:14:25;1.60;;;0.90;;
26540;SDS011;14206;50.202;10.948;2023-07-13T13:16:52;0.63;;;0.60;;
26540;SDS011;14206;50.202;10.948;2023-07-13T13:19:21;2.15;;;0.90;;
26540;SDS011;14206;50.202;10.948;2023-07-13T13:21:53;1.13;;;0.90;;
26540;SDS011;14206;50.202;10.948;2023-07-13T13:24:24;2.15;;;0.80;;
26540;SDS011;14206;50.202;10.948;2023-07-13T13:26:52;1.85;;;1.02;;
26540;SDS011;14206;50.202;10.948;2023-07-13T13:29:21;1.58;;;0.65;;
26540;SDS011;14206;50.202;10.948;2023-07-13T13:31:53;1.10;;;0.70;;
26540;SDS011;14206;50.202;10.948;2023-07-13T13:34:22;1.30;;;0.70;;
26540;SDS011;14206;50.202;10.948;2023-07-13T13:36:51;1.70;;;0.77;;
26540;SDS011;14206;50.202;10.948;2023-07-13T13:39:40;1.38;;;0.80;;
26540;SDS011;14206;50.202;10.948;2023-07-13T13:42:17;0.70;;;0.60;;
26540;SDS011;14206;50.202;10.948;2023-07-13T13:44:44;0.85;;;0.63;;
26540;SDS011;14206;50.202;10.948;2023-07-13T13:47:24;0.88;;;0.63;;
26540;SDS011;14206;50.202;10.948;2023-07-13T13:49:59;1.27;;;0.77;;
26540;SDS011;14206;50.202;10.948;2023-07-13T13:52:27;1.90;;;0.70;;
26540;SDS011;14206;50.202;10.948;2023-07-13T13:54:54;1.00;;;0.68;;
26540;SDS011;14206;50.202;10.948;2023-07-13T13:57:23;1.20;;;0.90;;
26540;SDS011;14206;50.202;10.948;2023-07-13T13:59:51;0.80;;;0.65;;
26540;SDS011;14206;50.202;10.948;2023-07-13T14:02:24;1.75;;;0.80;;
26540;SDS011;14206;50.202;10.948;2023-07-13T14:04:54;1.15;;;0.75;;
26540;SDS011;14206;50.202;10.948;2023-07-13T14:07:26;1.95;;;0.88;;
26540;SDS011;14206;50.202;10.948;2023-07-13T14:09:54;1.13;;;0.80;;
26540;SDS011;14206;50.202;10.948;2023-07-13T14:12:25;0.70;;;0.70;;
26540;SDS011;14206;50.202;10.948;2023-07-13T14:14:55;2.08;;;0.60;;
26540;SDS011;14206;50.202;10.948;2023-07-13T14:17:25;1.80;;;0.90;;
26540;SDS011;14206;50.202;10.948;2023-07-13T14:19:54;3.15;;;0.98;;
26540;SDS011;14206;50.202;10.948;2023-07-13T14:22:24;1.77;;;0.90;;
26540;SDS011;14206;50.202;10.948;2023-07-13T14:24:55;1.95;;;1.20;;
26540;SDS011;14206;50.202;10.948;2023-07-13T14:27:24;0.98;;;0.80;;
26540;SDS011;14206;50.202;10.948;2023-07-13T14:29:51;1.48;;;0.80;;
26540;SDS011;14206;50.202;10.948;2023-07-13T14:32:18;1.65;;;0.90;;
26540;SDS011;14206;50.202;10.948;2023-07-13T14:34:45;1.95;;;0.80;;
26540;SDS011;14206;50.202;10.948;2023-07-13T14:37:12;1.25;;;0.73;;
26540;SDS011;14206;50.202;10.948;2023-07-13T14:39:43;1.20;;;0.80;;
26540;SDS011;14206;50.202;10.948;2023-07-13T14:42:11;2.85;;;0.98;;
26540;SDS011;14206;50.202;10.948;2023-07-13T14:44:38;2.53;;;0.70;;
26540;SDS011;14206;50.202;10.948;2023-07-13T14:47:07;2.08;;;0.88;;
26540;SDS011;14206;50.202;10.948;2023-07-13T14:49:36;1.40;;;0.80;;
26540;SDS011;14206;50.202;10.948;2023-07-13T14:52:12;2.63;;;0.93;;
26540;SDS011;14206;50.202;10.948;2023-07-13T14:54:41;0.82;;;0.70;;
26540;SDS011;14206;50.202;10.948;2023-07-13T14:57:10;0.80;;;0.70;;
26540;SDS011;14206;50.202;10.948;2023-07-13T14:59:42;1.25;;;0.82;;
26540;SDS011;14206;50.202;10.948;2023-07-13T15:02:31;1.52;;;0.70;;
26540;SDS011;14206;50.202;10.948;2023-07-13T15:05:01;0.50;;;0.50;;
26540;SDS011;14206;50.202;10.948;2023-07-13T15:07:31;0.47;;;0.40;;
26540;SDS011;14206;50.202;10.948;2023-07-13T15:09:59;2.58;;;0.75;;
26540;SDS011;14206;50.202;10.948;2023-07-13T15:12:26;1.30;;;0.60;;
26540;SDS011;14206;50.202;10.948;2023-07-13T15:14:54;1.38;;;0.70;;
26540;SDS011;14206;50.202;10.948;2023-07-13T15:19:50;1.52;;;0.70;;
26540;SDS011;14206;50.202;10.948;2023-07-13T15:22:17;1.55;;;0.70;;
26540;SDS011;14206;50.202;10.948;2023-07-13T15:24:44;1.80;;;0.73;;
26540;SDS011;14206;50.202;10.948;2023-07-13T15:27:11;3.03;;;1.02;;
26540;SDS011;14206;50.202;10.948;2023-07-13T15:29:38;1.60;;;0.70;;